sensor_id;sensor_type;location;lat;lon;timestamp;P1;durP1;ratioP1;P2;durP2;ratioP2
13797;SDS011;6970;51.340;3.240;2023-07-13T00:03:07;10.30;;;3.13;;
13797;SDS011;6970;51.340;3.240;2023-07-13T00:05:35;8.37;;;2.90;;
13797;SDS011;6970;51.340;3.240;2023-07-13T00:08:02;11.50;;;3.60;;
13797;SDS011;6970;51.340;3.240;2023-07-13T00:13:01;9.57;;;3.03;;
13797;SDS011;6970;51.340;3.240;2023-07-13T00:15:34;9.37;;;3.07;;
13797;SDS011;6970;51.340;3.240;2023-07-13T00:18:08;11.57;;;3.07;;
13797;SDS011;6970;51.340;3.240;2023-07-13T00:20:35;12.43;;;3.77;;
13797;SDS011;6970;51.340;3.240;2023-07-13T00:23:08;9.80;;;3.03;;
13797;SDS011;6970;51.340;3.240;2023-07-13T00:25:35;16.33;;;4.80;;
13797;SDS011;6970;51.340;3.240;2023-07-13T00:28:08;19.50;;;4.33;;
13797;SDS011;6970;51.340;3.240;2023-07-13T00:30:35;12.03;;;4.13;;
13797;SDS011;6970;51.340;3.240;2023-07-13T00:33:06;10.67;;;3.40;;
13797;SDS011;6970;51.340;3.240;2023-07-13T00:35:46;11.27;;;3.47;;
13797;SDS011;6970;51.340;3.240;2023-07-13T00:41:08;14.63;;;3.60;;
13797;SDS011;6970;51.340;3.240;2023-07-13T00:43:35;18.37;;;4.60;;
13797;SDS011;6970;51.340;3.240;2023-07-13T00:46:18;17.37;;;4.33;;
13797;SDS011;6970;51.340;3.240;2023-07-13T00:49:01;12.90;;;3.47;;
13797;SDS011;6970;51.340;3.240;2023-07-13T00:54:23;15.30;;;4.20;;
13797;SDS011;6970;51.340;3.240;2023-07-13T00:56:57;16.67;;;4.37;;
13797;SDS011;6970;51.340;3.240;2023-07-13T00:59:29;15.10;;;4.17;;
13797;SDS011;6970;51.340;3.240;2023-07-13T01:01:57;11.47;;;4.00;;
13797;SDS011;6970;51.340;3.240;2023-07-13T01:04:25;12.57;;;3.80;;
13797;SDS011;6970;51.340;3.240;2023-07-13T01:06:56;13.43;;;4.33;;
13797;SDS011;6970;51.340;3.240;2023-07-13T01:11:57;22.80;;;4.83;;
13797;SDS011;6970;51.340;3.240;2023-07-13T01:14:25;14.23;;;4.60;;
13797;SDS011;6970;51.340;3.240;2023-07-13T01:16:52;19.17;;;4.50;;
13797;SDS011;6970;51.340;3.240;2023-07-13T01:19:29;17.37;;;4.47;;
13797;SDS011;6970;51.340;3.240;2023-07-13T01:24:42;12.40;;;4.27;;
13797;SDS011;6970;51.340;3.240;2023-07-13T01:27:13;17.80;;;4.30;;
13797;SDS011;6970;51.340;3.240;2023-07-13T01:29:44;19.20;;;4.67;;
13797;SDS011;6970;51.340;3.240;2023-07-13T01:32:16;14.83;;;4.43;;
13797;SDS011;6970;51.340;3.240;2023-07-13T01:34:49;16.33;;;4.50;;
13797;SDS011;6970;51.340;3.240;2023-07-13T01:37:25;14.63;;;4.27;;
13797;SDS011;6970;51.340;3.240;2023-07-13T01:39:54;16.20;;;4.33;;
13797;SDS011;6970;51.340;3.240;2023-07-13T01:42:25;15.63;;;4.97;;
13797;SDS011;6970;51.340;3.240;2023-07-13T01:44:55;13.97;;;4.73;;
13797;SDS011;6970;51.340;3.240;2023-07-13T01:47:23;15.90;;;5.13;;
13797;SDS011;6970;51.340;3.240;2023-07-13T01:49:54;14.30;;;4.97;;
13797;SDS011;6970;51.340;3.240;2023-07-13T01:52:21;15.60;;;5.40;;
13797;SDS011;6970;51.340;3.240;2023-07-13T01:54:50;16.93;;;4.60;;
13797;SDS011;6970;51.340;3.240;2023-07-13T01:57:24;17.23;;;4.50;;
13797;SDS011;6970;51.340;3.240;2023-07-13T01:59:54;20.60;;;4.63;;
13797;SDS011;6970;51.340;3.240;2023-07-13T02:02:24;14.93;;;5.07;;
13797;SDS011;6970;51.340;3.240;2023-07-13T02:07:24;16.97;;;5.03;;
13797;SDS011;6970;51.340;3.240;2023-07-13T02:09:51;15.43;;;4.50;;
13797;SDS011;6970;51.340;3.240;2023-07-13T02:12:22;16.60;;;4.77;;
13797;SDS011;6970;51.340;3.240;2023-07-13T02:14:49;21.10;;;5.47;;
13797;SDS011;6970;51.340;3.240;2023-07-13T02:17:19;13.93;;;5.13;;
13797;SDS011;6970;51.340;3.240;2023-07-13T02:19:49;19.80;;;5.87;;
13797;SDS011;6970;51.340;3.240;2023-07-13T02:22:17;14.47;;;4.97;;
13797;SDS011;6970;51.340;3.240;2023-07-13T02:24:45;21.30;;;6.03;;
13797;SDS011;6970;51.340;3.240;2023-07-13T02:29:44;15.03;;;4.63;;
13797;SDS011;6970;51.340;3.240;2023-07-13T02:34:42;18.87;;;5.10;;
13797;SDS011;6970;51.340;3.240;2023-07-13T02:39:40;17.47;;;5.63;;
13797;SDS011;6970;51.340;3.240;2023-07-13T02:42:14;19.73;;;6.03;;
13797;SDS011;6970;51.340;3.240;2023-07-13T02:44:42;17.50;;;5.13;;
13797;SDS011;6970;51.340;3.240;2023-07-13T02:47:11;16.90;;;4.87;;
13797;SDS011;6970;51.340;3.240;2023-07-13T02:49:41;14.67;;;5.63;;
13797;SDS011;6970;51.340;3.240;2023-07-13T02:52:08;21.53;;;5.77;;
13797;SDS011;6970;51.340;3.240;2023-07-13T02:57:11;23.23;;;5.80;;
13797;SDS011;6970;51.340;3.240;2023-07-13T02:59:42;13.33;;;5.03;;
13797;SDS011;6970;51.340;3.240;2023-07-13T03:04:43;12.67;;;5.07;;
13797;SDS011;6970;51.340;3.240;2023-07-13T03:07:13;16.50;;;5.90;;
13797;SDS011;6970;51.340;3.240;2023-07-13T03:09:44;19.13;;;5.07;;
13797;SDS011;6970;51.340;3.240;2023-07-13T03:12:11;16.00;;;5.70;;
13797;SDS011;6970;51.340;3.240;2023-07-13T03:14:40;12.07;;;5.90;;
13797;SDS011;6970;51.340;3.240;2023-07-13T03:17:08;14.43;;;4.70;;
13797;SDS011;6970;51.340;3.240;2023-07-13T03:19:37;19.83;;;6.13;;
13797;SDS011;6970;51.340;3.240;2023-07-13T03:24:36;21.90;;;5.90;;
13797;SDS011;6970;51.340;3.240;2023-07-13T03:27:05;16.63;;;5.93;;
13797;SDS011;6970;51.340;3.240;2023-07-13T03:29:45;23.20;;;6.40;;
13797;SDS011;6970;51.340;3.240;2023-07-13T03:32:15;16.17;;;4.97;;
13797;SDS011;6970;51.340;3.240;2023-07-13T03:37:13;15.57;;;5.77;;
13797;SDS011;6970;51.340;3.240;2023-07-13T03:39:40;18.13;;;5.93;;
13797;SDS011;6970;51.340;3.240;2023-07-13T03:42:10;20.23;;;6.27;;
13797;SDS011;6970;51.340;3.240;2023-07-13T03:44:39;17.30;;;5.50;;
13797;SDS011;6970;51.340;3.240;2023-07-13T03:47:09;15.93;;;5.73;;
13797;SDS011;6970;51.340;3.240;2023-07-13T03:52:07;11.77;;;4.97;;
13797;SDS011;6970;51.340;3.240;2023-07-13T03:54:41;13.57;;;4.93;;
13797;SDS011;6970;51.340;3.240;2023-07-13T03:59:38;17.97;;;5.30;;
13797;SDS011;6970;51.340;3.240;2023-07-13T04:02:06;21.17;;;5.33;;
13797;SDS011;6970;51.340;3.240;2023-07-13T04:07:10;13.73;;;5.53;;
13797;SDS011;6970;51.340;3.240;2023-07-13T04:09:37;17.93;;;5.97;;
13797;SDS011;6970;51.340;3.240;2023-07-13T04:12:05;17.47;;;5.40;;
13797;SDS011;6970;51.340;3.240;2023-07-13T04:17:05;15.07;;;5.20;;
13797;SDS011;6970;51.340;3.240;2023-07-13T04:19:34;16.57;;;5.27;;
13797;SDS011;6970;51.340;3.240;2023-07-13T04:22:04;19.13;;;5.63;;
13797;SDS011;6970;51.340;3.240;2023-07-13T04:24:32;17.23;;;5.93;;
13797;SDS011;6970;51.340;3.240;2023-07-13T04:27:02;19.27;;;6.33;;
13797;SDS011;6970;51.340;3.240;2023-07-13T04:29:32;13.87;;;4.83;;
13797;SDS011;6970;51.340;3.240;2023-07-13T04:37:04;17.43;;;5.57;;
13797;SDS011;6970;51.340;3.240;2023-07-13T04:39:32;18.10;;;5.87;;
13797;SDS011;6970;51.340;3.240;2023-07-13T04:42:04;19.20;;;5.93;;
13797;SDS011;6970;51.340;3.240;2023-07-13T04:44:33;18.47;;;5.93;;
13797;SDS011;6970;51.340;3.240;2023-07-13T04:47:01;17.23;;;6.23;;
13797;SDS011;6970;51.340;3.240;2023-07-13T04:49:28;17.07;;;5.93;;
13797;SDS011;6970;51.340;3.240;2023-07-13T04:51:58;12.17;;;5.50;;
13797;SDS011;6970;51.340;3.240;2023-07-13T04:54:31;20.90;;;5.97;;
13797;SDS011;6970;51.340;3.240;2023-07-13T04:56:59;17.90;;;6.43;;
13797;SDS011;6970;51.340;3.240;2023-07-13T04:59:29;16.53;;;6.67;;
13797;SDS011;6970;51.340;3.240;2023-07-13T05:04:31;15.70;;;5.80;;
13797;SDS011;6970;51.340;3.240;2023-07-13T05:07:01;9.47;;;5.30;;
13797;SDS011;6970;51.340;3.240;2023-07-13T05:11:58;17.13;;;5.90;;
13797;SDS011;6970;51.340;3.240;2023-07-13T05:14:25;16.97;;;6.00;;
13797;SDS011;6970;51.340;3.240;2023-07-13T05:16:53;16.23;;;5.67;;
13797;SDS011;6970;51.340;3.240;2023-07-13T05:19:26;12.93;;;5.63;;
13797;SDS011;6970;51.340;3.240;2023-07-13T05:21:55;17.37;;;5.60;;
13797;SDS011;6970;51.340;3.240;2023-07-13T05:26:52;14.40;;;4.43;;
13797;SDS011;6970;51.340;3.240;2023-07-13T05:29:21;15.47;;;5.67;;
13797;SDS011;6970;51.340;3.240;2023-07-13T05:34:20;17.30;;;5.20;;
13797;SDS011;6970;51.340;3.240;2023-07-13T05:36:48;19.47;;;4.97;;
13797;SDS011;6970;51.340;3.240;2023-07-13T05:39:16;16.50;;;6.30;;
13797;SDS011;6970;51.340;3.240;2023-07-13T05:41:46;16.20;;;4.63;;
13797;SDS011;6970;51.340;3.240;2023-07-13T05:44:13;15.97;;;5.27;;
13797;SDS011;6970;51.340;3.240;2023-07-13T05:49:12;18.73;;;5.03;;
13797;SDS011;6970;51.340;3.240;2023-07-13T05:51:45;11.27;;;4.97;;
13797;SDS011;6970;51.340;3.240;2023-07-13T05:54:13;15.70;;;5.27;;
13797;SDS011;6970;51.340;3.240;2023-07-13T05:56:42;11.93;;;4.50;;
13797;SDS011;6970;51.340;3.240;2023-07-13T05:59:09;12.63;;;5.43;;
13797;SDS011;6970;51.340;3.240;2023-07-13T06:01:38;16.50;;;4.83;;
13797;SDS011;6970;51.340;3.240;2023-07-13T06:04:06;16.80;;;5.60;;
13797;SDS011;6970;51.340;3.240;2023-07-13T06:09:04;15.33;;;5.43;;
13797;SDS011;6970;51.340;3.240;2023-07-13T06:11:31;16.67;;;4.97;;
13797;SDS011;6970;51.340;3.240;2023-07-13T06:16:33;14.53;;;4.60;;
13797;SDS011;6970;51.340;3.240;2023-07-13T06:19:02;16.23;;;5.40;;
13797;SDS011;6970;51.340;3.240;2023-07-13T06:21:32;13.03;;;5.77;;
13797;SDS011;6970;51.340;3.240;2023-07-13T06:26:32;13.43;;;5.50;;
13797;SDS011;6970;51.340;3.240;2023-07-13T06:28:59;16.57;;;4.17;;
13797;SDS011;6970;51.340;3.240;2023-07-13T06:33:58;16.60;;;4.30;;
13797;SDS011;6970;51.340;3.240;2023-07-13T06:36:26;13.93;;;4.73;;
13797;SDS011;6970;51.340;3.240;2023-07-13T06:38:56;13.03;;;4.43;;
13797;SDS011;6970;51.340;3.240;2023-07-13T06:41:23;14.13;;;5.13;;
13797;SDS011;6970;51.340;3.240;2023-07-13T06:43:55;11.80;;;4.13;;
13797;SDS011;6970;51.340;3.240;2023-07-13T06:46:24;13.13;;;4.20;;
13797;SDS011;6970;51.340;3.240;2023-07-13T06:48:52;11.60;;;4.67;;
13797;SDS011;6970;51.340;3.240;2023-07-13T06:53:52;17.20;;;4.73;;
13797;SDS011;6970;51.340;3.240;2023-07-13T06:56:20;11.67;;;3.57;;
13797;SDS011;6970;51.340;3.240;2023-07-13T06:58:48;13.47;;;3.97;;
13797;SDS011;6970;51.340;3.240;2023-07-13T07:06:22;10.80;;;4.33;;
13797;SDS011;6970;51.340;3.240;2023-07-13T07:08:51;11.33;;;4.33;;
13797;SDS011;6970;51.340;3.240;2023-07-13T07:13:52;8.97;;;3.90;;
13797;SDS011;6970;51.340;3.240;2023-07-13T07:16:26;12.47;;;4.13;;
13797;SDS011;6970;51.340;3.240;2023-07-13T07:21:26;7.07;;;3.47;;
13797;SDS011;6970;51.340;3.240;2023-07-13T07:23:55;9.20;;;3.03;;
13797;SDS011;6970;51.340;3.240;2023-07-13T07:26:26;6.83;;;2.80;;
13797;SDS011;6970;51.340;3.240;2023-07-13T07:28:59;6.73;;;2.70;;
13797;SDS011;6970;51.340;3.240;2023-07-13T07:36:35;4.70;;;2.57;;
13797;SDS011;6970;51.340;3.240;2023-07-13T07:39:04;4.10;;;2.17;;
13797;SDS011;6970;51.340;3.240;2023-07-13T07:44:08;4.30;;;2.40;;
13797;SDS011;6970;51.340;3.240;2023-07-13T07:46:39;5.07;;;2.00;;
13797;SDS011;6970;51.340;3.240;2023-07-13T07:49:08;5.03;;;2.27;;
13797;SDS011;6970;51.340;3.240;2023-07-13T07:51:36;6.00;;;2.37;;
13797;SDS011;6970;51.340;3.240;2023-07-13T07:54:05;6.57;;;2.33;;
13797;SDS011;6970;51.340;3.240;2023-07-13T07:56:32;5.93;;;2.10;;
13797;SDS011;6970;51.340;3.240;2023-07-13T07:59:03;6.57;;;2.40;;
13797;SDS011;6970;51.340;3.240;2023-07-13T08:01:37;4.10;;;2.03;;
13797;SDS011;6970;51.340;3.240;2023-07-13T08:06:57;5.63;;;1.90;;
13797;SDS011;6970;51.340;3.240;2023-07-13T08:09:24;3.67;;;1.70;;
13797;SDS011;6970;51.340;3.240;2023-07-13T08:11:51;4.63;;;1.87;;
13797;SDS011;6970;51.340;3.240;2023-07-13T08:14:22;4.77;;;2.00;;
13797;SDS011;6970;51.340;3.240;2023-07-13T08:16:56;5.23;;;2.10;;
13797;SDS011;6970;51.340;3.240;2023-07-13T08:19:24;12.53;;;2.80;;
13797;SDS011;6970;51.340;3.240;2023-07-13T08:21:52;6.53;;;3.03;;
13797;SDS011;6970;51.340;3.240;2023-07-13T08:26:51;8.77;;;2.43;;
13797;SDS011;6970;51.340;3.240;2023-07-13T08:29:19;7.63;;;2.17;;
13797;SDS011;6970;51.340;3.240;2023-07-13T08:31:53;6.90;;;2.70;;
13797;SDS011;6970;51.340;3.240;2023-07-13T08:34:23;5.40;;;2.30;;
13797;SDS011;6970;51.340;3.240;2023-07-13T08:36:53;7.57;;;2.67;;
13797;SDS011;6970;51.340;3.240;2023-07-13T08:39:24;6.78;;;2.30;;
13797;SDS011;6970;51.340;3.240;2023-07-13T08:42:04;11.70;;;2.60;;
13797;SDS011;6970;51.340;3.240;2023-07-13T08:44:52;3.63;;;1.60;;
13797;SDS011;6970;51.340;3.240;2023-07-13T08:47:42;7.97;;;2.20;;
13797;SDS011;6970;51.340;3.240;2023-07-13T08:50:17;5.22;;;2.03;;
13797;SDS011;6970;51.340;3.240;2023-07-13T08:52:47;6.07;;;2.07;;
13797;SDS011;6970;51.340;3.240;2023-07-13T08:55:15;10.85;;;2.53;;
13797;SDS011;6970;51.340;3.240;2023-07-13T09:03:42;5.82;;;1.55;;
13797;SDS011;6970;51.340;3.240;2023-07-13T09:06:23;5.00;;;2.10;;
13797;SDS011;6970;51.340;3.240;2023-07-13T09:09:13;7.40;;;1.90;;
13797;SDS011;6970;51.340;3.240;2023-07-13T09:14:45;4.65;;;1.95;;
13797;SDS011;6970;51.340;3.240;2023-07-13T09:17:18;5.55;;;1.88;;
13797;SDS011;6970;51.340;3.240;2023-07-13T09:19:53;5.82;;;1.90;;
13797;SDS011;6970;51.340;3.240;2023-07-13T09:22:31;5.35;;;2.05;;
13797;SDS011;6970;51.340;3.240;2023-07-13T09:28:08;3.45;;;1.25;;
13797;SDS011;6970;51.340;3.240;2023-07-13T09:31:10;5.05;;;1.70;;
13797;SDS011;6970;51.340;3.240;2023-07-13T09:33:54;5.07;;;1.70;;
13797;SDS011;6970;51.340;3.240;2023-07-13T09:36:29;6.00;;;2.38;;
13797;SDS011;6970;51.340;3.240;2023-07-13T09:39:04;4.15;;;2.00;;
13797;SDS011;6970;51.340;3.240;2023-07-13T09:47:26;4.43;;;2.05;;
13797;SDS011;6970;51.340;3.240;2023-07-13T09:49:59;4.43;;;2.08;;
13797;SDS011;6970;51.340;3.240;2023-07-13T09:52:40;5.15;;;1.85;;
13797;SDS011;6970;51.340;3.240;2023-07-13T09:55:45;5.65;;;2.30;;
13797;SDS011;6970;51.340;3.240;2023-07-13T09:58:12;6.00;;;2.03;;
13797;SDS011;6970;51.340;3.240;2023-07-13T10:03:37;7.03;;;2.47;;
13797;SDS011;6970;51.340;3.240;2023-07-13T10:08:57;8.80;;;2.70;;
13797;SDS011;6970;51.340;3.240;2023-07-13T10:11:29;10.63;;;2.83;;
13797;SDS011;6970;51.340;3.240;2023-07-13T10:14:09;6.53;;;3.05;;
13797;SDS011;6970;51.340;3.240;2023-07-13T10:16:37;3.08;;;1.75;;
13797;SDS011;6970;51.340;3.240;2023-07-13T10:19:17;3.00;;;1.60;;
13797;SDS011;6970;51.340;3.240;2023-07-13T10:21:57;3.28;;;1.50;;
13797;SDS011;6970;51.340;3.240;2023-07-13T10:24:35;1.90;;;1.60;;
13797;SDS011;6970;51.340;3.240;2023-07-13T10:32:46;3.88;;;2.70;;
13797;SDS011;6970;51.340;3.240;2023-07-13T10:35:16;2.95;;;2.25;;
13797;SDS011;6970;51.340;3.240;2023-07-13T10:37:56;7.10;;;1.50;;
13797;SDS011;6970;51.340;3.240;2023-07-13T10:40:40;4.15;;;1.30;;
13797;SDS011;6970;51.340;3.240;2023-07-13T10:43:16;2.90;;;1.33;;
13797;SDS011;6970;51.340;3.240;2023-07-13T10:45:56;4.57;;;1.60;;
13797;SDS011;6970;51.340;3.240;2023-07-13T10:48:24;2.53;;;1.45;;
13797;SDS011;6970;51.340;3.240;2023-07-13T10:50:53;4.80;;;2.08;;
13797;SDS011;6970;51.340;3.240;2023-07-13T10:53:31;5.97;;;1.80;;
13797;SDS011;6970;51.340;3.240;2023-07-13T10:59:01;6.30;;;2.00;;
13797;SDS011;6970;51.340;3.240;2023-07-13T11:04:23;4.50;;;1.98;;
13797;SDS011;6970;51.340;3.240;2023-07-13T11:06:56;5.95;;;1.92;;
13797;SDS011;6970;51.340;3.240;2023-07-13T11:09:32;6.53;;;1.63;;
13797;SDS011;6970;51.340;3.240;2023-07-13T11:12:48;4.07;;;1.80;;
13797;SDS011;6970;51.340;3.240;2023-07-13T11:15:26;5.53;;;1.80;;
13797;SDS011;6970;51.340;3.240;2023-07-13T11:18:42;8.23;;;1.67;;
13797;SDS011;6970;51.340;3.240;2023-07-13T11:24:14;2.33;;;1.42;;
13797;SDS011;6970;51.340;3.240;2023-07-13T11:31:57;5.82;;;2.20;;
13797;SDS011;6970;51.340;3.240;2023-07-13T11:34:36;6.68;;;1.90;;
13797;SDS011;6970;51.340;3.240;2023-07-13T11:37:08;4.30;;;2.13;;
13797;SDS011;6970;51.340;3.240;2023-07-13T11:39:42;3.03;;;1.60;;
13797;SDS011;6970;51.340;3.240;2023-07-13T11:42:13;5.95;;;1.80;;
13797;SDS011;6970;51.340;3.240;2023-07-13T11:44:45;5.78;;;1.77;;
13797;SDS011;6970;51.340;3.240;2023-07-13T11:47:33;6.22;;;2.38;;
13797;SDS011;6970;51.340;3.240;2023-07-13T11:50:00;3.88;;;1.75;;
13797;SDS011;6970;51.340;3.240;2023-07-13T11:52:35;7.10;;;1.98;;
13797;SDS011;6970;51.340;3.240;2023-07-13T11:55:04;4.03;;;1.80;;
13797;SDS011;6970;51.340;3.240;2023-07-13T11:57:47;6.05;;;2.05;;
13797;SDS011;6970;51.340;3.240;2023-07-13T12:00:18;6.43;;;2.00;;
13797;SDS011;6970;51.340;3.240;2023-07-13T12:02:51;4.47;;;1.80;;
13797;SDS011;6970;51.340;3.240;2023-07-13T12:05:20;5.35;;;2.17;;
13797;SDS011;6970;51.340;3.240;2023-07-13T12:07:47;6.22;;;2.10;;
13797;SDS011;6970;51.340;3.240;2023-07-13T12:10:23;4.25;;;1.80;;
13797;SDS011;6970;51.340;3.240;2023-07-13T12:13:05;7.15;;;1.83;;
13797;SDS011;6970;51.340;3.240;2023-07-13T12:18:21;5.93;;;2.22;;
13797;SDS011;6970;51.340;3.240;2023-07-13T12:20:53;6.15;;;2.22;;
13797;SDS011;6970;51.340;3.240;2023-07-13T12:23:34;8.10;;;2.42;;
13797;SDS011;6970;51.340;3.240;2023-07-13T12:26:04;6.63;;;2.20;;
13797;SDS011;6970;51.340;3.240;2023-07-13T12:28:38;8.10;;;2.30;;
13797;SDS011;6970;51.340;3.240;2023-07-13T12:34:06;10.40;;;2.65;;
13797;SDS011;6970;51.340;3.240;2023-07-13T12:36:35;5.38;;;2.30;;
13797;SDS011;6970;51.340;3.240;2023-07-13T12:41:44;8.25;;;2.38;;
13797;SDS011;6970;51.340;3.240;2023-07-13T12:44:12;5.28;;;2.00;;
13797;SDS011;6970;51.340;3.240;2023-07-13T12:46:57;4.32;;;1.40;;
13797;SDS011;6970;51.340;3.240;2023-07-13T12:49:42;4.28;;;1.75;;
13797;SDS011;6970;51.340;3.240;2023-07-13T12:52:23;5.10;;;1.75;;
13797;SDS011;6970;51.340;3.240;2023-07-13T12:54:57;4.38;;;1.80;;
13797;SDS011;6970;51.340;3.240;2023-07-13T12:58:09;4.45;;;1.45;;
13797;SDS011;6970;51.340;3.240;2023-07-13T13:06:01;5.10;;;1.73;;
13797;SDS011;6970;51.340;3.240;2023-07-13T13:08:34;4.85;;;2.17;;
13797;SDS011;6970;51.340;3.240;2023-07-13T13:11:08;7.53;;;3.83;;
13797;SDS011;6970;51.340;3.240;2023-07-13T13:13:38;6.95;;;3.15;;
13797;SDS011;6970;51.340;3.240;2023-07-13T13:16:12;10.30;;;3.00;;
13797;SDS011;6970;51.340;3.240;2023-07-13T13:18:41;7.35;;;2.20;;
13797;SDS011;6970;51.340;3.240;2023-07-13T13:21:10;9.63;;;2.00;;
13797;SDS011;6970;51.340;3.240;2023-07-13T13:23:40;7.75;;;2.40;;
13797;SDS011;6970;51.340;3.240;2023-07-13T13:28:41;4.22;;;2.17;;
13797;SDS011;6970;51.340;3.240;2023-07-13T13:31:13;5.20;;;2.40;;
13797;SDS011;6970;51.340;3.240;2023-07-13T13:33:43;3.78;;;1.52;;
13797;SDS011;6970;51.340;3.240;2023-07-13T13:36:19;5.07;;;1.98;;
13797;SDS011;6970;51.340;3.240;2023-07-13T13:38:50;6.50;;;2.13;;
13797;SDS011;6970;51.340;3.240;2023-07-13T13:41:19;5.97;;;1.95;;
13797;SDS011;6970;51.340;3.240;2023-07-13T13:46:23;5.70;;;2.28;;
13797;SDS011;6970;51.340;3.240;2023-07-13T13:48:57;3.15;;;1.50;;
13797;SDS011;6970;51.340;3.240;2023-07-13T13:56:27;6.80;;;1.60;;
13797;SDS011;6970;51.340;3.240;2023-07-13T13:58:56;4.60;;;2.20;;
13797;SDS011;6970;51.340;3.240;2023-07-13T14:04:01;6.72;;;1.90;;
13797;SDS011;6970;51.340;3.240;2023-07-13T14:06:32;6.93;;;2.42;;
13797;SDS011;6970;51.340;3.240;2023-07-13T14:09:01;6.50;;;3.60;;
13797;SDS011;6970;51.340;3.240;2023-07-13T14:11:29;13.65;;;3.38;;
13797;SDS011;6970;51.340;3.240;2023-07-13T14:13:58;6.57;;;2.22;;
13797;SDS011;6970;51.340;3.240;2023-07-13T14:16:28;6.07;;;2.35;;
13797;SDS011;6970;51.340;3.240;2023-07-13T14:21:30;8.77;;;2.25;;
13797;SDS011;6970;51.340;3.240;2023-07-13T14:23:58;10.35;;;2.75;;
13797;SDS011;6970;51.340;3.240;2023-07-13T14:26:25;7.78;;;2.60;;
13797;SDS011;6970;51.340;3.240;2023-07-13T14:31:25;7.70;;;2.25;;
13797;SDS011;6970;51.340;3.240;2023-07-13T14:36:28;5.32;;;1.80;;
13797;SDS011;6970;51.340;3.240;2023-07-13T14:38:59;3.75;;;1.60;;
13797;SDS011;6970;51.340;3.240;2023-07-13T14:41:32;5.07;;;1.83;;
13797;SDS011;6970;51.340;3.240;2023-07-13T14:44:01;7.90;;;2.00;;
13797;SDS011;6970;51.340;3.240;2023-07-13T14:49:04;8.80;;;2.10;;
13797;SDS011;6970;51.340;3.240;2023-07-13T14:51:38;6.28;;;1.88;;
13797;SDS011;6970;51.340;3.240;2023-07-13T14:54:11;8.40;;;3.50;;
13797;SDS011;6970;51.340;3.240;2023-07-13T14:56:40;4.50;;;3.28;;
13797;SDS011;6970;51.340;3.240;2023-07-13T14:59:08;5.88;;;1.90;;
13797;SDS011;6970;51.340;3.240;2023-07-13T15:01:38;7.00;;;1.60;;
13797;SDS011;6970;51.340;3.240;2023-07-13T15:04:07;5.40;;;1.60;;
13797;SDS011;6970;51.340;3.240;2023-07-13T15:09:20;4.75;;;1.40;;
13797;SDS011;6970;51.340;3.240;2023-07-13T15:11:48;5.13;;;1.88;;
13797;SDS011;6970;51.340;3.240;2023-07-13T15:14:18;5.10;;;1.80;;
13797;SDS011;6970;51.340;3.240;2023-07-13T15:16:46;3.95;;;1.75;;
13797;SDS011;6970;51.340;3.240;2023-07-13T15:19:19;6.93;;;1.60;;
13797;SDS011;6970;51.340;3.240;2023-07-13T15:21:49;4.60;;;1.90;;
13797;SDS011;6970;51.340;3.240;2023-07-13T15:24:29;7.40;;;1.67;;
13797;SDS011;6970;51.340;3.240;2023-07-13T15:26:56;7.15;;;1.85;;
13797;SDS011;6970;51.340;3.240;2023-07-13T15:29:26;4.60;;;1.80;;
13797;SDS011;6970;51.340;3.240;2023-07-13T15:34:26;4.80;;;1.77;;
13797;SDS011;6970;51.340;3.240;2023-07-13T15:41:56;3.55;;;1.13;;
13797;SDS011;6970;51.340;3.240;2023-07-13T15:44:29;4.22;;;1.20;;
13797;SDS011;6970;51.340;3.240;2023-07-13T15:49:29;3.30;;;1.27;;
13797;SDS011;6970;51.340;3.240;2023-07-13T15:54:28;4.85;;;1.42;;
13797;SDS011;6970;51.340;3.240;2023-07-13T15:57:00;5.05;;;1.60;;
13797;SDS011;6970;51.340;3.240;2023-07-13T15:59:28;6.50;;;1.50;;
13797;SDS011;6970;51.340;3.240;2023-07-13T16:01:55;3.80;;;1.60;;
13797;SDS011;6970;51.340;3.240;2023-07-13T16:06:53;3.87;;;1.53;;
13797;SDS011;6970;51.340;3.240;2023-07-13T16:09:21;3.50;;;1.37;;
13797;SDS011;6970;51.340;3.240;2023-07-13T16:11:49;4.93;;;1.27;;
13797;SDS011;6970;51.340;3.240;2023-07-13T16:14:17;5.43;;;1.10;;
13797;SDS011;6970;51.340;3.240;2023-07-13T16:16:50;4.93;;;1.47;;
13797;SDS011;6970;51.340;3.240;2023-07-13T16:19:23;7.33;;;1.60;;
13797;SDS011;6970;51.340;3.240;2023-07-13T16:21:58;4.00;;;1.50;;
13797;SDS011;6970;51.340;3.240;2023-07-13T16:26:59;3.70;;;1.40;;
13797;SDS011;6970;51.340;3.240;2023-07-13T16:32:19;5.07;;;1.50;;
13797;SDS011;6970;51.340;3.240;2023-07-13T16:34:46;5.67;;;1.90;;
13797;SDS011;6970;51.340;3.240;2023-07-13T16:39:59;5.17;;;1.60;;
13797;SDS011;6970;51.340;3.240;2023-07-13T16:42:29;4.17;;;1.50;;
13797;SDS011;6970;51.340;3.240;2023-07-13T16:44:57;7.40;;;1.80;;
13797;SDS011;6970;51.340;3.240;2023-07-13T16:47:30;9.93;;;2.10;;
13797;SDS011;6970;51.340;3.240;2023-07-13T16:50:00;4.53;;;1.50;;
13797;SDS011;6970;51.340;3.240;2023-07-13T16:52:30;5.67;;;1.73;;
13797;SDS011;6970;51.340;3.240;2023-07-13T16:54:58;6.77;;;2.10;;
13797;SDS011;6970;51.340;3.240;2023-07-13T16:57:29;4.80;;;2.40;;
13797;SDS011;6970;51.340;3.240;2023-07-13T16:59:59;7.70;;;2.27;;
13797;SDS011;6970;51.340;3.240;2023-07-13T17:02:36;3.67;;;2.13;;
13797;SDS011;6970;51.340;3.240;2023-07-13T17:05:11;6.50;;;2.03;;
13797;SDS011;6970;51.340;3.240;2023-07-13T17:07:43;5.23;;;2.80;;
13797;SDS011;6970;51.340;3.240;2023-07-13T17:10:24;4.87;;;2.27;;
13797;SDS011;6970;51.340;3.240;2023-07-13T17:15:23;5.63;;;2.07;;
13797;SDS011;6970;51.340;3.240;2023-07-13T17:17:54;8.13;;;2.40;;
13797;SDS011;6970;51.340;3.240;2023-07-13T17:23:19;8.27;;;2.23;;
13797;SDS011;6970;51.340;3.240;2023-07-13T17:25:48;5.33;;;2.20;;
13797;SDS011;6970;51.340;3.240;2023-07-13T17:28:17;4.03;;;1.83;;
13797;SDS011;6970;51.340;3.240;2023-07-13T17:30:48;7.60;;;1.77;;
13797;SDS011;6970;51.340;3.240;2023-07-13T17:36:14;9.33;;;2.07;;
13797;SDS011;6970;51.340;3.240;2023-07-13T17:41:18;6.33;;;1.60;;
13797;SDS011;6970;51.340;3.240;2023-07-13T17:43:46;8.83;;;2.17;;
13797;SDS011;6970;51.340;3.240;2023-07-13T17:46:19;6.33;;;2.20;;
13797;SDS011;6970;51.340;3.240;2023-07-13T17:51:26;8.90;;;2.73;;
13797;SDS011;6970;51.340;3.240;2023-07-13T17:53:57;6.67;;;1.90;;
13797;SDS011;6970;51.340;3.240;2023-07-13T17:56:25;7.70;;;2.00;;
13797;SDS011;6970;51.340;3.240;2023-07-13T17:58:53;4.80;;;2.27;;
13797;SDS011;6970;51.340;3.240;2023-07-13T18:01:21;5.47;;;2.20;;
13797;SDS011;6970;51.340;3.240;2023-07-13T18:03:53;6.10;;;2.27;;
13797;SDS011;6970;51.340;3.240;2023-07-13T18:06:33;7.27;;;2.30;;
13797;SDS011;6970;51.340;3.240;2023-07-13T18:09:18;5.17;;;1.97;;
13797;SDS011;6970;51.340;3.240;2023-07-13T18:16:51;5.27;;;1.70;;
13797;SDS011;6970;51.340;3.240;2023-07-13T18:24:27;4.23;;;2.13;;
13797;SDS011;6970;51.340;3.240;2023-07-13T18:32:00;4.67;;;2.10;;
13797;SDS011;6970;51.340;3.240;2023-07-13T18:34:40;7.30;;;2.43;;
13797;SDS011;6970;51.340;3.240;2023-07-13T18:37:18;6.17;;;1.70;;
13797;SDS011;6970;51.340;3.240;2023-07-13T18:39:48;7.33;;;1.90;;
13797;SDS011;6970;51.340;3.240;2023-07-13T18:44:56;4.93;;;1.80;;
13797;SDS011;6970;51.340;3.240;2023-07-13T18:47:26;9.00;;;2.00;;
13797;SDS011;6970;51.340;3.240;2023-07-13T18:50:11;8.50;;;2.43;;
13797;SDS011;6970;51.340;3.240;2023-07-13T18:52:44;4.97;;;2.73;;
13797;SDS011;6970;51.340;3.240;2023-07-13T18:55:15;7.17;;;2.47;;
13797;SDS011;6970;51.340;3.240;2023-07-13T18:57:49;5.70;;;2.40;;
13797;SDS011;6970;51.340;3.240;2023-07-13T19:00:24;7.83;;;2.23;;
13797;SDS011;6970;51.340;3.240;2023-07-13T19:02:58;5.50;;;2.10;;
13797;SDS011;6970;51.340;3.240;2023-07-13T19:05:27;7.97;;;2.33;;
13797;SDS011;6970;51.340;3.240;2023-07-13T19:08:17;5.33;;;2.17;;
13797;SDS011;6970;51.340;3.240;2023-07-13T19:10:50;5.67;;;2.00;;
13797;SDS011;6970;51.340;3.240;2023-07-13T19:13:19;10.57;;;2.63;;
13797;SDS011;6970;51.340;3.240;2023-07-13T19:15:51;8.93;;;2.67;;
13797;SDS011;6970;51.340;3.240;2023-07-13T19:20:54;6.67;;;2.50;;